• Join FlightAware (Why Join?)
  • Login
  • US Flag 
05:14PM EDT


 

Airport Tracker/Info


-or-


 

Live Flight TrackerFlight Track Log ✈ N960SW ✈ 26-May-2012 ✈ KEAU - KORD

Flight Track Log - Related Links

Times and Time Zones

All times are in EDT time to prevent confusion due to time zone crossing. See the N960SW flight status page for this flight to view local times or setup timezone preferences in your user account.

Time Position Orientation Groundspeed Altitude Reporting Facility
EDT Latitude Longitude Course Direction KTS MPH feet Rate Location/Type
08:17AM 44.7492 -91.4603 181° South 428 493 7,800  Level Minneapolis Center
08:18AM 44.6825 -91.4625 181° South 373 429 10,000 2,400 Climbing Minneapolis Center
08:19AM 44.5972 -91.4656 182° South 317 365 12,700 2,400 Climbing Minneapolis Center
08:21AM 44.4225 -91.4744 185° South 315 362 17,300 2,100 Climbing Minneapolis Center
08:22AM 44.3289 -91.4864 183° South 333 383 19,100 1,680 Climbing Minneapolis Center
08:23AM 44.2331 -91.4925 180° South 343 395 20,700 1,860 Climbing Minneapolis Center
08:24AM 44.1394 -91.4928 184° South 343 395 22,900 1,260 Climbing Minneapolis Center
08:26AM 43.9747 -91.5072 183° South 347 399 24,000 720 Climbing Chicago Center
08:27AM 43.8725 -91.5150 182° South 358 412 24,800 900 Climbing Chicago Center
08:28AM 43.7786 -91.5203 181° South 378 435 25,800 960 Climbing Chicago Center
08:29AM 43.6783 -91.5225 181° South 378 435 26,800 600 Climbing Chicago Center
08:30AM 43.5722 -91.5244 182° South 383 441 27,000 60 Climbing Chicago Center
08:31AM 43.4575 -91.5289 182° South 396 456 27,000  Level Chicago Center
08:32AM 43.3428 -91.5336 181° South 407 468 27,000  Level Chicago Center
08:33AM 43.2239 -91.5378 183° South 419 482 27,000  Level Chicago Center
08:34AM 43.1069 -91.5450 182° South 419 482 27,000  Level Chicago Center
08:35AM 42.9861 -91.5494 181° South 425 489 27,000  Level Chicago Center
08:36AM 42.8736 -91.5511 182° South 425 489 27,000  Level Chicago Center
08:37AM 42.7525 -91.5581 181° South 425 489 27,000  Level Chicago Center
08:38AM 42.6272 -91.5622 183° South 420 483 27,000  Level Chicago Center
08:39AM 42.5125 -91.5694 182° South 420 483 27,000  Level Chicago Center
08:40AM 42.4000 -91.5739 182° South 420 483 27,000  Level Chicago Center
08:41AM 42.2872 -91.5783 183° South 414 476 27,000  Level Chicago Center
08:42AM 42.1744 -91.5856 182° South 414 476 27,000  Level Chicago Center
08:43AM 42.0597 -91.5900 180° South 414 476 27,000  Level Chicago Center
08:44AM 41.9453 -91.5889 131° Southeast 414 476 27,000  Level Chicago Center
08:45AM 41.8764 -91.4833 116° Southeast 524 603 27,000  Level Chicago Center
08:46AM 41.8247 -91.3394 115° Southeast 484 557 27,000  Level Chicago Center
08:47AM 41.7731 -91.1931 117° Southeast 447 514 27,000  Level Chicago Center
08:48AM 41.7208 -91.0553 117° Southeast 425 489 27,000  Level Chicago Center
08:49AM 41.6644 -90.9092 116° Southeast 425 489 27,000 -60 Level Chicago Center
08:50AM 41.6122 -90.7664 116° Southeast 425 489 26,900 -300 Descending Chicago Center
08:51AM 41.5578 -90.6181 119° Southeast 431 496 26,500 -960 Descending Chicago Center
08:52AM 41.5069 -90.4950 116° Southeast 419 482 25,000 -780 Descending Chicago Center
08:53AM 41.4600 -90.3667 116° Southeast 399 459 25,000  Level Chicago Center
08:54AM 41.4111 -90.2358 117° Southeast 393 452 25,000  Level Chicago Center
08:55AM 41.3619 -90.1053 117° Southeast 393 452 25,000  Level Chicago Center
08:56AM 41.3067 -89.9636 117° Southeast 393 452 25,000 -300 Level Chicago Center
08:57AM 41.2553 -89.8306 117° Southeast 393 452 24,400 -840 Descending Chicago Center
08:58AM 41.2056 -89.7031 111° Southeast 388 447 23,400 -840 Descending Chicago Center
08:59AM 41.1683 -89.5733 63° Northeast 383 441 22,800 -1,200 Descending Chicago Center
09:00AM 41.2206 -89.4383 61° Northeast 423 487 21,000 -1,560 Descending Chicago Center
09:01AM 41.2728 -89.3111 61° Northeast 416 479 19,700 -1,380 Descending Chicago Center
09:02AM 41.3269 -89.1811 63° Northeast 405 466 18,300 -1,380 Descending Chicago Center
09:03AM 41.3767 -89.0483 61° Northeast 397 457 17,000 -1,440 Descending Chicago Center
09:04AM 41.4306 -88.9178 62° Northeast 392 451 15,500 -1,500 Descending Chicago Center
09:05AM 41.4800 -88.7928 63° Northeast 392 451 14,000 -1,320 Descending Chicago Center
09:06AM 41.5272 -88.6703 62° Northeast 381 438 12,900 -1,500 Descending Chicago Center
09:07AM 41.5722 -88.5589 76° East 363 418 11,000 -1,260 Descending Chicago Center
09:08AM 41.5925 -88.4531 78° East 320 368 10,400 -900 Descending Chicago Center
09:09AM 41.6083 -88.3558 58° Northeast 287 330 9,200 -1,140 Descending Chicago Center
09:10AM 41.6450 -88.2772 44° Northeast 258 297 8,200 -900 Descending Chicago Center
09:11AM 41.6883 -88.2211 44° Northeast 232 267 7,400 -780 Descending Chicago Center
09:12AM 41.7294 -88.1675 41° Northeast 213 245 6,700 -1,080 Descending Chicago Center
09:13AM 41.7728 -88.1164 44° Northeast 199 229 5,300 -1,140 Descending Chicago Center
09:15AM 41.8500 -88.0167 44° Northeast 173 199 3,400 -960 Descending Chicago TRACON